Basel, Switzerland

10:06 AM CET on March 03, 2015 (GMT +0100)
Attenschwiller, Sundgau | Change Station
CLOSE
Current Station
Personal Weather Station
Location: Attenschwiller, ALSACE
Elevation: 1115 ft
Nearby Weather Stations

Elev 1115 ft 47.57 °N, 7.47 °E | Updated 1 minute ago

Scattered Clouds
Scattered Clouds
42.6 °F
Feels Like 43 °F
N
2.5
Wind Variable Wind from ENE
Gusts 2.5 mph

Today
High -- | Low -- °F
--% Chance of Precip.
Yesterday
High -- | Low -- °F
Precip. -- in
7:07 AM 6:17 PM
Waxing Gibbous, 95% visible
Pressure 30.24 in
Visibility 6.2 miles
Clouds Few 5400 ft
Scattered Clouds 6600 ft
Windchill 43 °F
Dew Point 34 °F
Humidity 72%
Rainfall 0.00 in
Snow Depth Not available.
UV 2 out of 12
Pollen Not available.
Air Quality Not available.
Flu Activity Not available.
METAR LFSB 030900Z 15005KT 9999 FEW054 SCT066 05/00 Q1024 NOSIG

More Conditions Fewer Conditions

Pressure 30.24 in
Visibility 6.2 miles
Clouds Few 5400 ft
Scattered Clouds 6600 ft
Windchill 43 °F
Dew Point 34 °F
Humidity 72%
Rainfall 0.00 in
Snow Depth Not available.
UV 2 out of 12
Pollen Not available.
Air Quality Not available.
Flu Activity Not available.
METAR LFSB 030900Z 15005KT 9999 FEW054 SCT066 05/00 Q1024 NOSIG

More Conditions Fewer Conditions

10-Day Weather Forecast

Almanac

Astronomy

Mar. 03, 2015 Rise Set
Actual Time
Civil Twilight
Nautical Twilight
Astronomical Twilight
Moon
Length of Visible Light
Length of Day
Tomorrow will be .
, % of the Moon is Illuminated

Today's Extremes

Country Highs Country Lows

Community

WunderPhotos

Upload Photos

1,802,075 photos uploaded!

WunderBlogs® & News

Nearby

Air Quality

  Air Quality AQ Index Pollutant
Not available.

Snow Depth

Station Depth Elevation

Earthquake Activity

City Distance Mag. Time & Date
Minimum magnitude displayed is 2.5.

Coastal Water Temperatures

Place Temperature

Nearby Weather Stations